createdAt,value
2023-03-17T00:01:03.286Z,5.80
2023-03-17T00:06:06.105Z,5.90
2023-03-17T00:11:14.204Z,5.80
2023-03-17T00:21:31.173Z,5.80
2023-03-17T00:26:33.536Z,5.90
2023-03-17T00:31:36.318Z,5.90
2023-03-17T00:36:38.734Z,5.90
2023-03-17T00:41:41.049Z,5.70
2023-03-17T00:46:43.373Z,5.80
2023-03-17T00:51:46.311Z,5.80
2023-03-17T00:56:52.133Z,5.80
2023-03-17T01:01:55.495Z,5.80
2023-03-17T01:06:58.617Z,5.80
2023-03-17T01:12:01.591Z,5.90
2023-03-17T01:17:04.234Z,5.80
2023-03-17T01:22:06.379Z,5.80
2023-03-17T01:27:08.799Z,5.90
2023-03-17T01:32:13.045Z,6.00
2023-03-17T01:37:15.240Z,5.80
2023-03-17T01:42:17.724Z,5.90
2023-03-17T01:47:19.989Z,5.90
2023-03-17T01:52:23.142Z,5.80
2023-03-17T01:57:33.463Z,5.90
2023-03-17T02:02:38.926Z,5.80
2023-03-17T02:07:41.669Z,5.80
2023-03-17T02:12:46.035Z,5.70
2023-03-17T02:17:48.667Z,5.70
2023-03-17T02:22:54.049Z,5.60
2023-03-17T02:28:15.087Z,5.60
2023-03-17T02:33:17.326Z,5.60
2023-03-17T02:38:19.652Z,5.60
2023-03-17T02:43:22.425Z,5.60
2023-03-17T02:48:24.910Z,5.70
2023-03-17T02:53:27.234Z,5.70
2023-03-17T02:58:29.760Z,5.70
2023-03-17T03:03:33.017Z,5.70
2023-03-17T03:08:36.006Z,5.80
2023-03-17T03:13:39.096Z,5.60
2023-03-17T03:18:41.460Z,5.60
2023-03-17T03:23:43.717Z,5.60
2023-03-17T03:28:46.276Z,5.50
2023-03-17T03:33:48.549Z,5.60
2023-03-17T03:38:51.066Z,5.50
2023-03-17T03:43:53.399Z,5.60
2023-03-17T03:48:55.918Z,5.60
2023-03-17T03:53:58.192Z,5.60
2023-03-17T03:59:01.235Z,5.60
2023-03-17T04:04:04.573Z,5.70
2023-03-17T04:09:06.898Z,5.60
2023-03-17T04:14:09.348Z,5.40
2023-03-17T04:19:11.743Z,5.40
2023-03-17T04:24:15.125Z,5.40
2023-03-17T04:29:17.385Z,5.30
2023-03-17T04:34:19.943Z,5.20
2023-03-17T04:39:22.449Z,5.30
2023-03-17T04:44:24.735Z,5.40
2023-03-17T04:49:27.321Z,5.50
2023-03-17T04:54:29.624Z,5.50
2023-03-17T04:59:32.266Z,5.60
2023-03-17T05:04:35.377Z,5.50
2023-03-17T05:09:38.020Z,5.60
2023-03-17T05:14:40.570Z,5.60
2023-03-17T05:19:43.211Z,5.70
2023-03-17T05:24:45.531Z,5.70
2023-03-17T05:29:48.863Z,5.70
2023-03-17T05:34:52.081Z,5.60
2023-03-17T05:39:54.319Z,5.60
2023-03-17T05:44:56.661Z,5.90
2023-03-17T05:49:59.402Z,5.80
2023-03-17T05:55:01.794Z,5.90
2023-03-17T06:00:05.476Z,6.00
2023-03-17T06:05:08.961Z,6.00
2023-03-17T06:10:11.897Z,6.20
2023-03-17T06:15:14.189Z,6.00
2023-03-17T06:20:16.962Z,6.10
2023-03-17T06:25:19.646Z,6.10
2023-03-17T06:30:22.594Z,6.10
2023-03-17T06:35:25.360Z,5.80
2023-03-17T06:40:28.102Z,5.80
2023-03-17T06:45:32.995Z,5.90
2023-03-17T06:50:35.674Z,5.70
2023-03-17T06:55:38.062Z,6.00
2023-03-17T07:00:40.703Z,6.10
2023-03-17T07:05:43.685Z,6.30
2023-03-17T07:10:46.931Z,6.50
2023-03-17T07:15:49.987Z,6.40
2023-03-17T07:20:52.233Z,6.40
2023-03-17T07:25:54.630Z,6.20
2023-03-17T07:30:58.209Z,6.30
2023-03-17T07:36:01.722Z,6.30
2023-03-17T07:41:04.947Z,6.50
2023-03-17T07:46:07.547Z,6.20
2023-03-17T07:51:15.027Z,6.40
2023-03-17T07:56:17.938Z,6.10
2023-03-17T08:01:21.745Z,6.20
2023-03-17T08:06:25.522Z,5.80
2023-03-17T08:11:29.462Z,5.60
2023-03-17T08:16:32.393Z,5.60
2023-03-17T08:21:34.695Z,5.80
2023-03-17T08:26:37.800Z,6.10
2023-03-17T08:31:40.814Z,6.50
2023-03-17T08:36:43.304Z,6.40
2023-03-17T08:42:06.134Z,6.20
2023-03-17T08:47:08.513Z,6.50
2023-03-17T08:52:11.250Z,6.50
2023-03-17T08:57:15.609Z,6.60
2023-03-17T09:02:18.955Z,6.70
2023-03-17T09:07:21.818Z,6.40
2023-03-17T09:12:24.006Z,6.30
2023-03-17T09:17:26.451Z,6.30
2023-03-17T09:22:28.681Z,6.70
2023-03-17T09:27:31.029Z,7.10
2023-03-17T09:32:33.333Z,7.10
2023-03-17T09:37:35.647Z,7.30
2023-03-17T09:53:20.774Z,7.50
2023-03-17T09:58:30.839Z,8.20
2023-03-17T10:03:34.361Z,8.20
2023-03-17T10:08:42.305Z,8.50
2023-03-17T10:14:09.519Z,8.30
2023-03-17T10:24:34.206Z,8.60
2023-03-17T10:29:36.413Z,8.40
2023-03-17T10:34:39.962Z,8.50
2023-03-17T10:44:58.956Z,8.40
2023-03-17T10:50:25.405Z,8.70
2023-03-17T11:01:00.072Z,9.20
2023-03-17T11:11:34.839Z,9.80
2023-03-17T11:16:40.776Z,10.00
2023-03-17T11:43:34.334Z,9.90
2023-03-17T12:04:49.604Z,9.50
2023-03-17T12:10:22.762Z,9.60
2023-03-17T12:15:37.879Z,9.90
2023-03-17T12:25:59.457Z,10.00
2023-03-17T13:33:31.854Z,5.60
2023-03-17T13:48:56.625Z,8.50
2023-03-17T13:59:21.011Z,9.60
2023-03-17T14:04:28.448Z,9.60
2023-03-17T14:22:56.839Z,9.80
2023-03-17T14:28:00.307Z,10.20
2023-03-17T14:38:32.953Z,10.40
2023-03-17T14:43:36.582Z,10.40
2023-03-17T14:48:42.554Z,10.50
2023-03-17T14:53:46.661Z,10.50
2023-03-17T14:58:52.237Z,10.40
2023-03-17T15:03:57.949Z,10.40
2023-03-17T15:09:17.074Z,10.40
2023-03-17T15:14:25.944Z,10.40
2023-03-17T15:19:46.760Z,10.20
2023-03-17T15:25:00.578Z,10.30
2023-03-17T15:30:03.324Z,10.20
2023-03-17T15:35:07.705Z,10.20
2023-03-17T15:40:10.872Z,10.20
2023-03-17T15:45:16.132Z,10.10
2023-03-17T15:50:26.391Z,10.00
2023-03-17T15:55:30.735Z,10.00
2023-03-17T16:00:33.695Z,10.10
2023-03-17T16:05:36.777Z,10.00
2023-03-17T16:10:39.066Z,9.90
2023-03-17T16:15:43.942Z,9.90
2023-03-17T16:20:49.268Z,9.80
2023-03-17T16:25:53.814Z,9.80
2023-03-17T16:30:57.961Z,9.80
2023-03-17T16:36:01.242Z,9.90
2023-03-17T16:41:10.025Z,9.80
2023-03-17T16:46:13.773Z,9.80
2023-03-17T16:51:16.988Z,9.80
2023-03-17T16:56:22.045Z,9.80
2023-03-17T17:01:27.295Z,9.80
2023-03-17T17:06:29.584Z,9.90
2023-03-17T17:11:31.830Z,9.80
2023-03-17T17:16:37.252Z,9.80
2023-03-17T17:21:39.555Z,9.80
2023-03-17T17:26:42.025Z,9.80
2023-03-17T17:31:44.255Z,9.60
2023-03-17T17:36:46.650Z,9.50
2023-03-17T17:41:48.913Z,9.60
2023-03-17T17:46:51.235Z,9.60
2023-03-17T17:51:53.533Z,9.70
2023-03-17T17:56:55.788Z,9.60
2023-03-17T18:01:59.929Z,9.50
2023-03-17T18:07:02.288Z,9.30
2023-03-17T18:12:05.144Z,9.30
2023-03-17T18:17:07.773Z,9.30
2023-03-17T18:22:10.063Z,9.20
2023-03-17T18:27:13.158Z,9.30
2023-03-17T18:32:15.971Z,9.10
2023-03-17T18:37:19.287Z,9.20
2023-03-17T18:42:22.480Z,9.30
2023-03-17T18:47:24.766Z,9.20
2023-03-17T18:52:35.729Z,9.30
2023-03-17T18:57:38.046Z,9.30
2023-03-17T19:02:40.372Z,9.20
2023-03-17T19:07:42.811Z,9.00
2023-03-17T19:12:46.443Z,8.90
2023-03-17T19:17:50.400Z,8.80
2023-03-17T19:22:53.824Z,8.70
2023-03-17T19:27:56.481Z,8.70
2023-03-17T19:32:58.732Z,8.80
2023-03-17T19:38:01.297Z,8.80
2023-03-17T19:43:06.357Z,9.00
2023-03-17T19:48:11.801Z,9.20
2023-03-17T19:53:14.192Z,9.20
2023-03-17T19:58:16.459Z,9.30
2023-03-17T20:03:19.079Z,9.20
2023-03-17T20:08:22.606Z,9.30
2023-03-17T20:13:24.920Z,9.30
2023-03-17T20:18:27.818Z,9.40
2023-03-17T20:23:30.151Z,9.40
2023-03-17T20:28:32.636Z,9.40
2023-03-17T20:33:35.375Z,9.40
2023-03-17T20:38:39.035Z,9.40
2023-03-17T20:43:41.825Z,9.30
2023-03-17T20:48:46.602Z,9.20
2023-03-17T20:53:49.400Z,9.20
2023-03-17T20:58:53.366Z,9.10
2023-03-17T21:03:55.752Z,9.10
2023-03-17T21:08:58.763Z,8.90
2023-03-17T21:14:03.444Z,8.80
2023-03-17T21:19:07.995Z,8.80
2023-03-17T21:24:24.841Z,8.60
2023-03-17T21:29:29.355Z,8.50
2023-03-17T21:34:32.258Z,8.40
2023-03-17T21:39:36.308Z,8.50
2023-03-17T21:44:39.391Z,8.50
2023-03-17T21:49:41.788Z,8.60
2023-03-17T21:54:44.065Z,8.70
2023-03-17T21:59:48.156Z,8.50
2023-03-17T22:04:50.389Z,8.60
2023-03-17T22:09:53.893Z,8.60
2023-03-17T22:14:58.318Z,8.70
2023-03-17T22:20:00.546Z,8.80
2023-03-17T22:25:05.630Z,8.90
2023-03-17T22:30:08.497Z,8.60
2023-03-17T22:35:12.083Z,8.20
2023-03-17T22:40:14.860Z,8.20
2023-03-17T22:45:17.158Z,8.30
2023-03-17T22:50:19.475Z,8.20
2023-03-17T22:55:21.705Z,8.10
2023-03-17T23:00:25.784Z,7.90
2023-03-17T23:05:28.347Z,8.00
2023-03-17T23:10:33.695Z,8.00
2023-03-17T23:15:36.211Z,8.10
2023-03-17T23:20:40.888Z,8.20
2023-03-17T23:25:44.072Z,8.20
2023-03-17T23:30:47.377Z,8.40
2023-03-17T23:35:50.536Z,8.50
2023-03-17T23:40:56.964Z,8.60
2023-03-17T23:46:00.570Z,8.70
2023-03-17T23:51:03.411Z,8.70
2023-03-17T23:56:07.185Z,8.50
